sensor_id;sensor_type;location;lat;lon;timestamp;temperature;humidity
5392;DHT22;2719;53.624;9.786;2022-10-26T00:01:18;13.40;99.90
5392;DHT22;2719;53.624;9.786;2022-10-26T00:03:45;13.40;99.90
5392;DHT22;2719;53.624;9.786;2022-10-26T00:06:13;13.40;99.90
5392;DHT22;2719;53.624;9.786;2022-10-26T00:08:41;13.40;99.90
5392;DHT22;2719;53.624;9.786;2022-10-26T00:11:08;13.30;99.90
5392;DHT22;2719;53.624;9.786;2022-10-26T00:13:36;13.30;99.90
5392;DHT22;2719;53.624;9.786;2022-10-26T00:16:08;13.20;99.90
5392;DHT22;2719;53.624;9.786;2022-10-26T00:18:35;13.30;99.90
5392;DHT22;2719;53.624;9.786;2022-10-26T00:21:03;13.30;99.90
5392;DHT22;2719;53.624;9.786;2022-10-26T00:23:30;13.30;99.90
5392;DHT22;2719;53.624;9.786;2022-10-26T00:25:57;13.30;99.90
5392;DHT22;2719;53.624;9.786;2022-10-26T00:28:24;13.30;99.90
5392;DHT22;2719;53.624;9.786;2022-10-26T00:30:50;13.20;99.90
5392;DHT22;2719;53.624;9.786;2022-10-26T00:33:18;13.20;99.90
5392;DHT22;2719;53.624;9.786;2022-10-26T00:35:47;13.20;99.90
5392;DHT22;2719;53.624;9.786;2022-10-26T00:38:14;13.20;99.90
5392;DHT22;2719;53.624;9.786;2022-10-26T00:40:40;13.30;99.90
5392;DHT22;2719;53.624;9.786;2022-10-26T00:43:14;13.30;99.90
5392;DHT22;2719;53.624;9.786;2022-10-26T00:45:41;13.30;99.90
5392;DHT22;2719;53.624;9.786;2022-10-26T00:48:13;13.30;99.90
5392;DHT22;2719;53.624;9.786;2022-10-26T00:50:46;13.30;99.90
5392;DHT22;2719;53.624;9.786;2022-10-26T00:53:13;13.30;99.90
5392;DHT22;2719;53.624;9.786;2022-10-26T00:55:44;13.30;99.90
5392;DHT22;2719;53.624;9.786;2022-10-26T00:58:12;13.30;99.90
5392;DHT22;2719;53.624;9.786;2022-10-26T01:00:40;13.30;99.90
5392;DHT22;2719;53.624;9.786;2022-10-26T01:03:08;13.30;99.90
5392;DHT22;2719;53.624;9.786;2022-10-26T01:05:38;13.20;99.90
5392;DHT22;2719;53.624;9.786;2022-10-26T01:08:07;13.20;99.90
5392;DHT22;2719;53.624;9.786;2022-10-26T01:10:37;13.20;99.90
5392;DHT22;2719;53.624;9.786;2022-10-26T01:13:05;13.20;99.90
5392;DHT22;2719;53.624;9.786;2022-10-26T01:15:39;13.20;99.90
5392;DHT22;2719;53.624;9.786;2022-10-26T01:18:12;13.10;99.90
5392;DHT22;2719;53.624;9.786;2022-10-26T01:21:11;13.10;99.90
5392;DHT22;2719;53.624;9.786;2022-10-26T01:26:44;13.10;99.90
5392;DHT22;2719;53.624;9.786;2022-10-26T01:29:42;13.10;99.90
5392;DHT22;2719;53.624;9.786;2022-10-26T01:32:22;13.00;99.90
5392;DHT22;2719;53.624;9.786;2022-10-26T01:34:54;13.00;99.90
5392;DHT22;2719;53.624;9.786;2022-10-26T01:37:27;12.90;99.90
5392;DHT22;2719;53.624;9.786;2022-10-26T01:39:59;12.90;99.90
5392;DHT22;2719;53.624;9.786;2022-10-26T01:42:28;12.90;99.90
5392;DHT22;2719;53.624;9.786;2022-10-26T01:45:00;12.90;99.90
5392;DHT22;2719;53.624;9.786;2022-10-26T01:47:31;12.80;99.90
5392;DHT22;2719;53.624;9.786;2022-10-26T01:50:00;12.80;99.90
5392;DHT22;2719;53.624;9.786;2022-10-26T01:52:27;12.80;99.90
5392;DHT22;2719;53.624;9.786;2022-10-26T01:54:59;12.70;99.90
5392;DHT22;2719;53.624;9.786;2022-10-26T01:57:27;12.70;99.90
5392;DHT22;2719;53.624;9.786;2022-10-26T02:00:03;12.60;99.90
5392;DHT22;2719;53.624;9.786;2022-10-26T02:02:43;12.60;99.90
5392;DHT22;2719;53.624;9.786;2022-10-26T02:05:39;12.50;99.90
5392;DHT22;2719;53.624;9.786;2022-10-26T02:08:22;12.60;99.90
5392;DHT22;2719;53.624;9.786;2022-10-26T02:11:01;12.50;99.90
5392;DHT22;2719;53.624;9.786;2022-10-26T02:13:35;12.50;99.90
5392;DHT22;2719;53.624;9.786;2022-10-26T02:16:13;12.50;99.90
5392;DHT22;2719;53.624;9.786;2022-10-26T02:18:49;12.40;99.90
5392;DHT22;2719;53.624;9.786;2022-10-26T02:21:20;12.40;99.90
5392;DHT22;2719;53.624;9.786;2022-10-26T02:23:49;12.40;99.90
5392;DHT22;2719;53.624;9.786;2022-10-26T02:26:20;12.40;99.90
5392;DHT22;2719;53.624;9.786;2022-10-26T02:28:50;12.40;99.90
5392;DHT22;2719;53.624;9.786;2022-10-26T02:31:17;12.40;99.90
5392;DHT22;2719;53.624;9.786;2022-10-26T02:33:48;12.30;99.90
5392;DHT22;2719;53.624;9.786;2022-10-26T02:36:17;12.30;99.90
5392;DHT22;2719;53.624;9.786;2022-10-26T02:38:45;12.30;99.90
5392;DHT22;2719;53.624;9.786;2022-10-26T02:41:14;12.30;99.90
5392;DHT22;2719;53.624;9.786;2022-10-26T02:43:44;12.20;99.90
5392;DHT22;2719;53.624;9.786;2022-10-26T02:46:16;12.20;99.90
5392;DHT22;2719;53.624;9.786;2022-10-26T02:48:43;12.20;99.90
5392;DHT22;2719;53.624;9.786;2022-10-26T02:51:16;12.20;99.90
5392;DHT22;2719;53.624;9.786;2022-10-26T02:53:48;12.20;99.90
5392;DHT22;2719;53.624;9.786;2022-10-26T02:56:19;12.20;99.90
5392;DHT22;2719;53.624;9.786;2022-10-26T02:58:50;12.20;99.90
5392;DHT22;2719;53.624;9.786;2022-10-26T03:01:18;12.20;99.90
5392;DHT22;2719;53.624;9.786;2022-10-26T03:03:45;12.10;99.90
5392;DHT22;2719;53.624;9.786;2022-10-26T03:06:20;12.10;99.90
5392;DHT22;2719;53.624;9.786;2022-10-26T03:08:48;12.10;99.90
5392;DHT22;2719;53.624;9.786;2022-10-26T03:11:14;12.10;99.90
5392;DHT22;2719;53.624;9.786;2022-10-26T03:13:41;12.10;99.90
5392;DHT22;2719;53.624;9.786;2022-10-26T03:16:08;12.10;99.90
5392;DHT22;2719;53.624;9.786;2022-10-26T03:18:35;12.10;99.90
5392;DHT22;2719;53.624;9.786;2022-10-26T03:21:01;12.10;99.90
5392;DHT22;2719;53.624;9.786;2022-10-26T03:23:29;12.00;99.90
5392;DHT22;2719;53.624;9.786;2022-10-26T03:25:56;12.00;99.90
5392;DHT22;2719;53.624;9.786;2022-10-26T03:28:23;12.10;99.90
5392;DHT22;2719;53.624;9.786;2022-10-26T03:30:50;12.10;99.90
5392;DHT22;2719;53.624;9.786;2022-10-26T03:33:17;12.00;99.90
5392;DHT22;2719;53.624;9.786;2022-10-26T03:35:44;12.00;99.90
5392;DHT22;2719;53.624;9.786;2022-10-26T03:38:10;12.00;99.90
5392;DHT22;2719;53.624;9.786;2022-10-26T03:40:39;12.00;99.90
5392;DHT22;2719;53.624;9.786;2022-10-26T03:43:06;12.00;99.90
5392;DHT22;2719;53.624;9.786;2022-10-26T03:45:33;11.90;99.90
5392;DHT22;2719;53.624;9.786;2022-10-26T03:47:59;11.90;99.90
5392;DHT22;2719;53.624;9.786;2022-10-26T03:50:26;11.90;99.90
5392;DHT22;2719;53.624;9.786;2022-10-26T03:52:52;11.90;99.90
5392;DHT22;2719;53.624;9.786;2022-10-26T03:55:19;11.90;99.90
5392;DHT22;2719;53.624;9.786;2022-10-26T03:57:47;11.90;99.90
5392;DHT22;2719;53.624;9.786;2022-10-26T04:00:15;11.80;99.90
5392;DHT22;2719;53.624;9.786;2022-10-26T04:02:43;11.80;99.90
5392;DHT22;2719;53.624;9.786;2022-10-26T04:05:11;11.80;99.90
5392;DHT22;2719;53.624;9.786;2022-10-26T04:07:37;11.80;99.90
5392;DHT22;2719;53.624;9.786;2022-10-26T04:10:05;11.80;99.90
5392;DHT22;2719;53.624;9.786;2022-10-26T04:12:31;11.80;99.90
5392;DHT22;2719;53.624;9.786;2022-10-26T04:15:03;11.80;99.90
5392;DHT22;2719;53.624;9.786;2022-10-26T04:17:31;11.80;99.90
5392;DHT22;2719;53.624;9.786;2022-10-26T04:19:57;11.70;99.90
5392;DHT22;2719;53.624;9.786;2022-10-26T04:22:24;11.70;99.90
5392;DHT22;2719;53.624;9.786;2022-10-26T04:24:51;11.70;99.90
5392;DHT22;2719;53.624;9.786;2022-10-26T04:27:17;11.70;99.90
5392;DHT22;2719;53.624;9.786;2022-10-26T04:29:44;11.60;99.90
5392;DHT22;2719;53.624;9.786;2022-10-26T04:32:12;11.60;99.90
5392;DHT22;2719;53.624;9.786;2022-10-26T04:34:38;11.60;99.90
5392;DHT22;2719;53.624;9.786;2022-10-26T04:37:05;11.60;99.90
5392;DHT22;2719;53.624;9.786;2022-10-26T04:39:31;11.60;99.90
5392;DHT22;2719;53.624;9.786;2022-10-26T04:41:58;11.50;99.90
5392;DHT22;2719;53.624;9.786;2022-10-26T04:44:25;11.50;99.90
5392;DHT22;2719;53.624;9.786;2022-10-26T04:46:51;11.50;99.90
5392;DHT22;2719;53.624;9.786;2022-10-26T04:49:19;11.50;99.90
5392;DHT22;2719;53.624;9.786;2022-10-26T04:51:46;11.50;99.90
5392;DHT22;2719;53.624;9.786;2022-10-26T04:54:12;11.50;99.90
5392;DHT22;2719;53.624;9.786;2022-10-26T04:56:39;11.40;99.90
5392;DHT22;2719;53.624;9.786;2022-10-26T04:59:06;11.40;99.90
5392;DHT22;2719;53.624;9.786;2022-10-26T05:01:32;11.40;99.90
5392;DHT22;2719;53.624;9.786;2022-10-26T05:03:59;11.40;99.90
5392;DHT22;2719;53.624;9.786;2022-10-26T05:06:27;11.40;99.90
5392;DHT22;2719;53.624;9.786;2022-10-26T05:08:54;11.40;99.90
5392;DHT22;2719;53.624;9.786;2022-10-26T05:11:21;11.40;99.90
5392;DHT22;2719;53.624;9.786;2022-10-26T05:13:48;11.40;99.90
5392;DHT22;2719;53.624;9.786;2022-10-26T05:16:14;11.40;99.90
5392;DHT22;2719;53.624;9.786;2022-10-26T05:18:41;11.40;99.90
5392;DHT22;2719;53.624;9.786;2022-10-26T05:21:08;11.40;99.90
5392;DHT22;2719;53.624;9.786;2022-10-26T05:23:38;11.40;99.90
5392;DHT22;2719;53.624;9.786;2022-10-26T05:26:04;11.40;99.90
5392;DHT22;2719;53.624;9.786;2022-10-26T05:28:31;11.30;99.90
5392;DHT22;2719;53.624;9.786;2022-10-26T05:30:58;11.30;99.90
5392;DHT22;2719;53.624;9.786;2022-10-26T05:33:24;11.30;99.90
5392;DHT22;2719;53.624;9.786;2022-10-26T05:35:53;11.30;99.90
5392;DHT22;2719;53.624;9.786;2022-10-26T05:38:19;11.20;99.90
5392;DHT22;2719;53.624;9.786;2022-10-26T05:40:48;11.20;99.90
5392;DHT22;2719;53.624;9.786;2022-10-26T05:43:15;11.20;99.90
5392;DHT22;2719;53.624;9.786;2022-10-26T05:45:42;11.20;99.90
5392;DHT22;2719;53.624;9.786;2022-10-26T05:48:09;11.20;99.90
5392;DHT22;2719;53.624;9.786;2022-10-26T05:50:35;11.20;99.90
5392;DHT22;2719;53.624;9.786;2022-10-26T05:53:02;11.20;99.90
5392;DHT22;2719;53.624;9.786;2022-10-26T05:55:30;11.20;99.90
5392;DHT22;2719;53.624;9.786;2022-10-26T05:57:59;11.10;99.90
5392;DHT22;2719;53.624;9.786;2022-10-26T06:00:27;11.10;99.90
5392;DHT22;2719;53.624;9.786;2022-10-26T06:03:04;11.10;99.90
5392;DHT22;2719;53.624;9.786;2022-10-26T06:05:34;11.10;99.90
5392;DHT22;2719;53.624;9.786;2022-10-26T06:08:07;11.10;99.90
5392;DHT22;2719;53.624;9.786;2022-10-26T06:10:35;11.10;99.90
5392;DHT22;2719;53.624;9.786;2022-10-26T06:13:04;11.00;99.90
5392;DHT22;2719;53.624;9.786;2022-10-26T06:15:34;11.00;99.90
5392;DHT22;2719;53.624;9.786;2022-10-26T06:18:13;11.00;99.90
5392;DHT22;2719;53.624;9.786;2022-10-26T06:20:49;11.00;99.90
5392;DHT22;2719;53.624;9.786;2022-10-26T06:23:39;11.00;99.90
5392;DHT22;2719;53.624;9.786;2022-10-26T06:26:17;10.90;99.90
5392;DHT22;2719;53.624;9.786;2022-10-26T06:28:54;11.00;99.90
5392;DHT22;2719;53.624;9.786;2022-10-26T06:31:22;10.90;99.90
5392;DHT22;2719;53.624;9.786;2022-10-26T06:33:57;10.90;99.90
5392;DHT22;2719;53.624;9.786;2022-10-26T06:36:25;10.90;99.90
5392;DHT22;2719;53.624;9.786;2022-10-26T06:38:55;10.90;99.90
5392;DHT22;2719;53.624;9.786;2022-10-26T06:41:24;10.90;99.90
5392;DHT22;2719;53.624;9.786;2022-10-26T06:43:53;10.90;99.90
5392;DHT22;2719;53.624;9.786;2022-10-26T06:46:33;10.90;99.90
5392;DHT22;2719;53.624;9.786;2022-10-26T06:49:07;10.80;99.90
5392;DHT22;2719;53.624;9.786;2022-10-26T06:51:40;10.80;99.90
5392;DHT22;2719;53.624;9.786;2022-10-26T06:54:14;10.80;99.90
5392;DHT22;2719;53.624;9.786;2022-10-26T06:56:45;10.80;99.90
5392;DHT22;2719;53.624;9.786;2022-10-26T06:59:17;10.80;99.90
5392;DHT22;2719;53.624;9.786;2022-10-26T07:01:47;10.80;99.90
5392;DHT22;2719;53.624;9.786;2022-10-26T07:04:14;10.80;99.90
5392;DHT22;2719;53.624;9.786;2022-10-26T07:06:40;10.80;99.90
5392;DHT22;2719;53.624;9.786;2022-10-26T07:09:07;10.80;99.90
5392;DHT22;2719;53.624;9.786;2022-10-26T07:11:34;10.80;99.90
5392;DHT22;2719;53.624;9.786;2022-10-26T07:14:00;10.80;99.90
5392;DHT22;2719;53.624;9.786;2022-10-26T07:16:28;10.80;99.90
5392;DHT22;2719;53.624;9.786;2022-10-26T07:18:55;10.90;99.90
5392;DHT22;2719;53.624;9.786;2022-10-26T07:21:21;10.90;99.90
5392;DHT22;2719;53.624;9.786;2022-10-26T07:23:48;10.90;99.90
5392;DHT22;2719;53.624;9.786;2022-10-26T07:26:15;10.90;99.90
5392;DHT22;2719;53.624;9.786;2022-10-26T07:28:41;10.90;99.90
5392;DHT22;2719;53.624;9.786;2022-10-26T07:31:08;11.00;99.90
5392;DHT22;2719;53.624;9.786;2022-10-26T07:33:36;11.00;99.90
5392;DHT22;2719;53.624;9.786;2022-10-26T07:36:03;11.00;99.90
5392;DHT22;2719;53.624;9.786;2022-10-26T07:38:30;11.10;99.90
5392;DHT22;2719;53.624;9.786;2022-10-26T07:40:57;11.20;99.90
5392;DHT22;2719;53.624;9.786;2022-10-26T07:43:23;11.20;99.90
5392;DHT22;2719;53.624;9.786;2022-10-26T07:45:50;11.20;99.90
5392;DHT22;2719;53.624;9.786;2022-10-26T07:48:17;11.20;99.90
5392;DHT22;2719;53.624;9.786;2022-10-26T07:50:44;11.30;99.90
5392;DHT22;2719;53.624;9.786;2022-10-26T07:53:11;11.40;99.90
5392;DHT22;2719;53.624;9.786;2022-10-26T07:55:38;11.30;99.90
5392;DHT22;2719;53.624;9.786;2022-10-26T07:58:05;11.40;99.90
5392;DHT22;2719;53.624;9.786;2022-10-26T08:00:31;11.50;99.90
5392;DHT22;2719;53.624;9.786;2022-10-26T08:02:58;11.50;99.90
5392;DHT22;2719;53.624;9.786;2022-10-26T08:05:24;11.60;99.90
5392;DHT22;2719;53.624;9.786;2022-10-26T08:07:52;11.60;99.90
5392;DHT22;2719;53.624;9.786;2022-10-26T08:10:19;11.70;99.90
5392;DHT22;2719;53.624;9.786;2022-10-26T08:12:46;11.70;99.90
5392;DHT22;2719;53.624;9.786;2022-10-26T08:15:12;11.70;99.90
5392;DHT22;2719;53.624;9.786;2022-10-26T08:17:39;11.80;99.90
5392;DHT22;2719;53.624;9.786;2022-10-26T08:20:06;11.90;99.90
5392;DHT22;2719;53.624;9.786;2022-10-26T08:22:33;11.90;99.90
5392;DHT22;2719;53.624;9.786;2022-10-26T08:25:01;12.20;99.90
5392;DHT22;2719;53.624;9.786;2022-10-26T08:27:28;12.20;99.90
5392;DHT22;2719;53.624;9.786;2022-10-26T08:29:54;12.30;99.90
5392;DHT22;2719;53.624;9.786;2022-10-26T08:32:21;12.30;99.90
5392;DHT22;2719;53.624;9.786;2022-10-26T08:34:48;12.50;99.90
5392;DHT22;2719;53.624;9.786;2022-10-26T08:37:14;12.60;99.90
5392;DHT22;2719;53.624;9.786;2022-10-26T08:39:41;12.70;99.90
5392;DHT22;2719;53.624;9.786;2022-10-26T08:42:13;12.80;99.90
5392;DHT22;2719;53.624;9.786;2022-10-26T08:44:45;12.90;99.90
5392;DHT22;2719;53.624;9.786;2022-10-26T08:47:17;13.00;99.90
5392;DHT22;2719;53.624;9.786;2022-10-26T08:49:49;13.10;99.90
5392;DHT22;2719;53.624;9.786;2022-10-26T08:52:21;13.20;99.90
5392;DHT22;2719;53.624;9.786;2022-10-26T08:54:51;13.20;99.90
5392;DHT22;2719;53.624;9.786;2022-10-26T08:57:24;13.30;99.90
5392;DHT22;2719;53.624;9.786;2022-10-26T08:59:56;13.30;99.90
5392;DHT22;2719;53.624;9.786;2022-10-26T09:02:23;13.50;99.90
5392;DHT22;2719;53.624;9.786;2022-10-26T09:04:50;13.60;99.90
5392;DHT22;2719;53.624;9.786;2022-10-26T09:07:28;13.60;99.90
5392;DHT22;2719;53.624;9.786;2022-10-26T09:10:03;13.70;99.90
5392;DHT22;2719;53.624;9.786;2022-10-26T09:12:41;13.80;99.90
5392;DHT22;2719;53.624;9.786;2022-10-26T09:15:16;13.90;99.90
5392;DHT22;2719;53.624;9.786;2022-10-26T09:17:51;14.00;99.90
5392;DHT22;2719;53.624;9.786;2022-10-26T09:20:50;14.00;99.90
5392;DHT22;2719;53.624;9.786;2022-10-26T09:23:35;14.10;99.90
5392;DHT22;2719;53.624;9.786;2022-10-26T09:26:05;14.20;99.90
5392;DHT22;2719;53.624;9.786;2022-10-26T09:28:37;14.30;99.90
5392;DHT22;2719;53.624;9.786;2022-10-26T09:31:11;14.40;99.90
5392;DHT22;2719;53.624;9.786;2022-10-26T09:33:39;14.40;99.90
5392;DHT22;2719;53.624;9.786;2022-10-26T09:36:09;14.50;99.90
5392;DHT22;2719;53.624;9.786;2022-10-26T09:38:42;14.50;99.90
5392;DHT22;2719;53.624;9.786;2022-10-26T09:41:15;14.60;99.90
5392;DHT22;2719;53.624;9.786;2022-10-26T09:43:50;14.60;99.90
5392;DHT22;2719;53.624;9.786;2022-10-26T09:46:25;14.70;99.90
5392;DHT22;2719;53.624;9.786;2022-10-26T09:48:55;14.80;99.90
5392;DHT22;2719;53.624;9.786;2022-10-26T09:51:24;14.90;99.90
5392;DHT22;2719;53.624;9.786;2022-10-26T09:53:52;15.00;99.90
5392;DHT22;2719;53.624;9.786;2022-10-26T09:56:19;15.00;99.90
5392;DHT22;2719;53.624;9.786;2022-10-26T09:58:52;15.10;99.90
5392;DHT22;2719;53.624;9.786;2022-10-26T10:01:28;15.20;99.90
5392;DHT22;2719;53.624;9.786;2022-10-26T10:04:16;15.20;99.90
5392;DHT22;2719;53.624;9.786;2022-10-26T10:06:45;15.30;99.90
5392;DHT22;2719;53.624;9.786;2022-10-26T10:09:13;15.40;99.90
5392;DHT22;2719;53.624;9.786;2022-10-26T10:11:43;15.40;99.90
5392;DHT22;2719;53.624;9.786;2022-10-26T10:14:15;15.40;99.90
5392;DHT22;2719;53.624;9.786;2022-10-26T10:16:50;15.50;99.90
5392;DHT22;2719;53.624;9.786;2022-10-26T10:19:22;15.50;99.90
5392;DHT22;2719;53.624;9.786;2022-10-26T10:21:50;15.60;99.90
5392;DHT22;2719;53.624;9.786;2022-10-26T10:24:22;15.60;99.90
5392;DHT22;2719;53.624;9.786;2022-10-26T10:27:01;15.70;99.90
5392;DHT22;2719;53.624;9.786;2022-10-26T10:29:30;15.80;99.90
5392;DHT22;2719;53.624;9.786;2022-10-26T10:32:00;15.90;99.90
5392;DHT22;2719;53.624;9.786;2022-10-26T10:34:29;15.90;99.90
5392;DHT22;2719;53.624;9.786;2022-10-26T10:36:56;16.00;99.90
5392;DHT22;2719;53.624;9.786;2022-10-26T10:39:36;16.10;99.90
5392;DHT22;2719;53.624;9.786;2022-10-26T10:42:05;16.10;99.90
5392;DHT22;2719;53.624;9.786;2022-10-26T10:44:34;16.10;99.90
5392;DHT22;2719;53.624;9.786;2022-10-26T10:47:01;16.10;99.90
5392;DHT22;2719;53.624;9.786;2022-10-26T10:49:29;16.20;99.90
5392;DHT22;2719;53.624;9.786;2022-10-26T10:51:56;16.30;99.90
5392;DHT22;2719;53.624;9.786;2022-10-26T10:54:26;16.40;99.90
5392;DHT22;2719;53.624;9.786;2022-10-26T10:56:59;16.50;99.90
5392;DHT22;2719;53.624;9.786;2022-10-26T10:59:44;16.60;99.90
5392;DHT22;2719;53.624;9.786;2022-10-26T11:02:36;16.70;99.90
5392;DHT22;2719;53.624;9.786;2022-10-26T11:05:21;16.80;99.90
5392;DHT22;2719;53.624;9.786;2022-10-26T11:07:51;16.90;99.90
5392;DHT22;2719;53.624;9.786;2022-10-26T11:10:22;17.00;99.90
5392;DHT22;2719;53.624;9.786;2022-10-26T11:12:54;17.10;99.90
5392;DHT22;2719;53.624;9.786;2022-10-26T11:15:26;17.20;99.90
5392;DHT22;2719;53.624;9.786;2022-10-26T11:17:59;17.30;99.90
5392;DHT22;2719;53.624;9.786;2022-10-26T11:20:31;17.50;99.90
5392;DHT22;2719;53.624;9.786;2022-10-26T11:23:03;17.60;99.90
5392;DHT22;2719;53.624;9.786;2022-10-26T11:25:35;17.80;99.90
5392;DHT22;2719;53.624;9.786;2022-10-26T11:28:12;17.70;99.90
5392;DHT22;2719;53.624;9.786;2022-10-26T11:30:45;17.80;99.90
5392;DHT22;2719;53.624;9.786;2022-10-26T11:33:16;17.90;99.90
5392;DHT22;2719;53.624;9.786;2022-10-26T11:35:45;17.90;99.90
5392;DHT22;2719;53.624;9.786;2022-10-26T11:38:17;17.90;99.90
5392;DHT22;2719;53.624;9.786;2022-10-26T11:40:51;17.90;99.90
5392;DHT22;2719;53.624;9.786;2022-10-26T11:43:26;17.90;99.90
5392;DHT22;2719;53.624;9.786;2022-10-26T11:46:02;18.00;99.90
5392;DHT22;2719;53.624;9.786;2022-10-26T11:48:34;18.10;99.90
5392;DHT22;2719;53.624;9.786;2022-10-26T11:51:03;18.20;99.90
5392;DHT22;2719;53.624;9.786;2022-10-26T11:53:38;18.30;99.90
5392;DHT22;2719;53.624;9.786;2022-10-26T11:56:13;18.40;99.90
5392;DHT22;2719;53.624;9.786;2022-10-26T11:58:42;18.30;99.90
5392;DHT22;2719;53.624;9.786;2022-10-26T12:01:13;18.20;99.90
5392;DHT22;2719;53.624;9.786;2022-10-26T12:03:44;18.30;99.90
5392;DHT22;2719;53.624;9.786;2022-10-26T12:06:13;18.40;99.90
5392;DHT22;2719;53.624;9.786;2022-10-26T12:08:44;18.50;99.90
5392;DHT22;2719;53.624;9.786;2022-10-26T12:11:19;18.60;99.90
5392;DHT22;2719;53.624;9.786;2022-10-26T12:13:51;18.80;99.90
5392;DHT22;2719;53.624;9.786;2022-10-26T12:16:41;18.80;99.90
5392;DHT22;2719;53.624;9.786;2022-10-26T12:19:14;18.90;99.90
5392;DHT22;2719;53.624;9.786;2022-10-26T12:21:42;18.90;99.90
5392;DHT22;2719;53.624;9.786;2022-10-26T12:24:27;19.10;99.90
5392;DHT22;2719;53.624;9.786;2022-10-26T12:26:54;19.10;99.90
5392;DHT22;2719;53.624;9.786;2022-10-26T12:29:37;19.20;99.90
5392;DHT22;2719;53.624;9.786;2022-10-26T12:35:38;19.40;99.90
5392;DHT22;2719;53.624;9.786;2022-10-26T12:41:22;19.60;99.90
5392;DHT22;2719;53.624;9.786;2022-10-26T12:43:49;19.70;99.90
5392;DHT22;2719;53.624;9.786;2022-10-26T12:46:40;19.70;99.90
5392;DHT22;2719;53.624;9.786;2022-10-26T12:52:43;20.10;99.90
5392;DHT22;2719;53.624;9.786;2022-10-26T13:04:39;20.40;99.90
5392;DHT22;2719;53.624;9.786;2022-10-26T13:07:17;20.40;99.90
5392;DHT22;2719;53.624;9.786;2022-10-26T13:09:52;20.50;99.90
5392;DHT22;2719;53.624;9.786;2022-10-26T13:12:20;20.50;99.90
5392;DHT22;2719;53.624;9.786;2022-10-26T13:15:00;20.40;99.90
5392;DHT22;2719;53.624;9.786;2022-10-26T13:17:29;20.50;99.90
5392;DHT22;2719;53.624;9.786;2022-10-26T13:19:58;20.60;99.90
5392;DHT22;2719;53.624;9.786;2022-10-26T13:22:25;20.60;99.90
5392;DHT22;2719;53.624;9.786;2022-10-26T13:24:56;20.60;99.90
5392;DHT22;2719;53.624;9.786;2022-10-26T13:27:42;20.70;99.90
5392;DHT22;2719;53.624;9.786;2022-10-26T13:30:20;20.70;99.90
5392;DHT22;2719;53.624;9.786;2022-10-26T13:32:50;20.70;99.90
5392;DHT22;2719;53.624;9.786;2022-10-26T13:35:19;20.60;99.90
5392;DHT22;2719;53.624;9.786;2022-10-26T13:37:49;20.50;99.90
5392;DHT22;2719;53.624;9.786;2022-10-26T13:40:19;20.50;99.90
5392;DHT22;2719;53.624;9.786;2022-10-26T13:42:48;20.40;99.90
5392;DHT22;2719;53.624;9.786;2022-10-26T13:45:18;20.40;99.90
5392;DHT22;2719;53.624;9.786;2022-10-26T13:47:48;20.40;99.90
5392;DHT22;2719;53.624;9.786;2022-10-26T13:50:20;20.40;99.90
5392;DHT22;2719;53.624;9.786;2022-10-26T13:52:50;20.40;99.90
5392;DHT22;2719;53.624;9.786;2022-10-26T13:55:22;20.20;99.90
5392;DHT22;2719;53.624;9.786;2022-10-26T13:58:02;20.20;99.90
5392;DHT22;2719;53.624;9.786;2022-10-26T14:00:31;20.20;99.90
5392;DHT22;2719;53.624;9.786;2022-10-26T14:02:58;20.10;99.90
5392;DHT22;2719;53.624;9.786;2022-10-26T14:05:24;19.90;99.90
5392;DHT22;2719;53.624;9.786;2022-10-26T14:07:54;20.00;99.90
5392;DHT22;2719;53.624;9.786;2022-10-26T14:10:28;19.90;99.90
5392;DHT22;2719;53.624;9.786;2022-10-26T14:12:55;19.90;99.90
5392;DHT22;2719;53.624;9.786;2022-10-26T14:15:24;19.90;99.90
5392;DHT22;2719;53.624;9.786;2022-10-26T14:17:53;19.80;99.90
5392;DHT22;2719;53.624;9.786;2022-10-26T14:20:22;19.90;99.90
5392;DHT22;2719;53.624;9.786;2022-10-26T14:22:50;19.90;99.90
5392;DHT22;2719;53.624;9.786;2022-10-26T14:25:19;19.90;99.90
5392;DHT22;2719;53.624;9.786;2022-10-26T14:27:47;19.90;99.90
5392;DHT22;2719;53.624;9.786;2022-10-26T14:30:22;19.90;99.90
5392;DHT22;2719;53.624;9.786;2022-10-26T14:32:49;19.90;99.90
5392;DHT22;2719;53.624;9.786;2022-10-26T14:35:16;19.90;99.90
5392;DHT22;2719;53.624;9.786;2022-10-26T14:37:49;19.90;99.90
5392;DHT22;2719;53.624;9.786;2022-10-26T14:40:19;19.90;99.90
5392;DHT22;2719;53.624;9.786;2022-10-26T14:42:49;19.80;99.90
5392;DHT22;2719;53.624;9.786;2022-10-26T14:45:23;19.80;99.90
5392;DHT22;2719;53.624;9.786;2022-10-26T14:47:50;19.70;99.90
5392;DHT22;2719;53.624;9.786;2022-10-26T14:50:19;19.60;99.90
5392;DHT22;2719;53.624;9.786;2022-10-26T14:52:49;19.60;99.90
5392;DHT22;2719;53.624;9.786;2022-10-26T14:55:17;19.60;99.90
5392;DHT22;2719;53.624;9.786;2022-10-26T14:57:46;19.60;99.90
5392;DHT22;2719;53.624;9.786;2022-10-26T15:00:17;19.30;99.90
5392;DHT22;2719;53.624;9.786;2022-10-26T15:02:45;19.30;99.90
5392;DHT22;2719;53.624;9.786;2022-10-26T15:05:20;19.30;99.90
5392;DHT22;2719;53.624;9.786;2022-10-26T15:07:51;19.20;99.90
5392;DHT22;2719;53.624;9.786;2022-10-26T15:10:46;19.20;99.90
5392;DHT22;2719;53.624;9.786;2022-10-26T15:13:23;19.20;99.90
5392;DHT22;2719;53.624;9.786;2022-10-26T15:15:52;19.20;99.90
5392;DHT22;2719;53.624;9.786;2022-10-26T15:18:23;19.20;99.90
5392;DHT22;2719;53.624;9.786;2022-10-26T15:20:51;19.10;99.90
5392;DHT22;2719;53.624;9.786;2022-10-26T15:23:19;19.10;99.90
5392;DHT22;2719;53.624;9.786;2022-10-26T15:25:51;19.10;99.90
5392;DHT22;2719;53.624;9.786;2022-10-26T15:28:23;19.10;99.90
5392;DHT22;2719;53.624;9.786;2022-10-26T15:31:03;19.10;99.90
5392;DHT22;2719;53.624;9.786;2022-10-26T15:33:31;19.00;99.90
5392;DHT22;2719;53.624;9.786;2022-10-26T15:36:11;19.00;99.90
5392;DHT22;2719;53.624;9.786;2022-10-26T15:38:38;18.90;99.90
5392;DHT22;2719;53.624;9.786;2022-10-26T15:41:13;18.90;99.90
5392;DHT22;2719;53.624;9.786;2022-10-26T15:43:40;18.80;99.90
5392;DHT22;2719;53.624;9.786;2022-10-26T15:46:08;18.80;99.90
5392;DHT22;2719;53.624;9.786;2022-10-26T15:48:35;18.70;99.90
5392;DHT22;2719;53.624;9.786;2022-10-26T15:51:02;18.70;99.90
5392;DHT22;2719;53.624;9.786;2022-10-26T15:53:28;18.60;99.90
5392;DHT22;2719;53.624;9.786;2022-10-26T15:55:57;18.60;99.90
5392;DHT22;2719;53.624;9.786;2022-10-26T15:58:24;18.50;99.90
5392;DHT22;2719;53.624;9.786;2022-10-26T16:00:50;18.50;99.90
5392;DHT22;2719;53.624;9.786;2022-10-26T16:03:20;18.40;99.90
5392;DHT22;2719;53.624;9.786;2022-10-26T16:05:48;18.40;99.90
5392;DHT22;2719;53.624;9.786;2022-10-26T16:08:17;18.30;99.90
5392;DHT22;2719;53.624;9.786;2022-10-26T16:10:44;18.30;99.90
5392;DHT22;2719;53.624;9.786;2022-10-26T16:13:12;18.20;99.90
5392;DHT22;2719;53.624;9.786;2022-10-26T16:15:39;18.10;99.90
5392;DHT22;2719;53.624;9.786;2022-10-26T16:18:06;18.00;99.90
5392;DHT22;2719;53.624;9.786;2022-10-26T16:20:34;18.00;99.90
5392;DHT22;2719;53.624;9.786;2022-10-26T16:23:01;17.90;99.90
5392;DHT22;2719;53.624;9.786;2022-10-26T16:25:32;17.90;99.90
5392;DHT22;2719;53.624;9.786;2022-10-26T16:27:59;17.80;99.90
5392;DHT22;2719;53.624;9.786;2022-10-26T16:30:28;17.80;99.90
5392;DHT22;2719;53.624;9.786;2022-10-26T16:32:55;17.80;99.90
5392;DHT22;2719;53.624;9.786;2022-10-26T16:35:22;17.70;99.90
5392;DHT22;2719;53.624;9.786;2022-10-26T16:37:50;17.60;99.90
5392;DHT22;2719;53.624;9.786;2022-10-26T16:40:17;17.60;99.90
5392;DHT22;2719;53.624;9.786;2022-10-26T16:42:43;17.50;99.90
5392;DHT22;2719;53.624;9.786;2022-10-26T16:45:11;17.40;99.90